sensor_id;sensor_type;location;lat;lon;timestamp;temperature;humidity
1476;DHT22;730;48.870;12.542;2023-03-23T00:01:32;11.60;1.00
1476;DHT22;730;48.870;12.542;2023-03-23T00:04:03;11.60;1.00
1476;DHT22;730;48.870;12.542;2023-03-23T00:06:29;11.50;1.00
1476;DHT22;730;48.870;12.542;2023-03-23T00:08:59;11.50;1.00
1476;DHT22;730;48.870;12.542;2023-03-23T00:11:30;11.40;1.00
1476;DHT22;730;48.870;12.542;2023-03-23T00:13:58;11.40;1.00
1476;DHT22;730;48.870;12.542;2023-03-23T00:16:29;11.30;1.00
1476;DHT22;730;48.870;12.542;2023-03-23T00:18:59;11.20;1.00
1476;DHT22;730;48.870;12.542;2023-03-23T00:21:28;11.20;1.00
1476;DHT22;730;48.870;12.542;2023-03-23T00:24:05;11.20;1.00
1476;DHT22;730;48.870;12.542;2023-03-23T00:26:33;11.10;1.00
1476;DHT22;730;48.870;12.542;2023-03-23T00:29:03;11.00;1.00
1476;DHT22;730;48.870;12.542;2023-03-23T00:31:29;11.00;1.00
1476;DHT22;730;48.870;12.542;2023-03-23T00:33:59;10.90;1.00
1476;DHT22;730;48.870;12.542;2023-03-23T00:36:28;10.90;1.00
1476;DHT22;730;48.870;12.542;2023-03-23T00:38:54;10.90;1.00
1476;DHT22;730;48.870;12.542;2023-03-23T00:41:26;10.90;1.00
1476;DHT22;730;48.870;12.542;2023-03-23T00:43:57;10.90;1.00
1476;DHT22;730;48.870;12.542;2023-03-23T00:46:24;10.80;1.00
1476;DHT22;730;48.870;12.542;2023-03-23T00:48:50;10.90;1.00
1476;DHT22;730;48.870;12.542;2023-03-23T00:51:18;10.90;1.00
1476;DHT22;730;48.870;12.542;2023-03-23T00:53:50;10.90;1.00
1476;DHT22;730;48.870;12.542;2023-03-23T00:56:17;10.90;1.00
1476;DHT22;730;48.870;12.542;2023-03-23T00:58:43;10.90;1.00
1476;DHT22;730;48.870;12.542;2023-03-23T01:01:09;10.90;1.00
1476;DHT22;730;48.870;12.542;2023-03-23T01:03:35;10.90;1.00
1476;DHT22;730;48.870;12.542;2023-03-23T01:06:08;10.90;1.00
1476;DHT22;730;48.870;12.542;2023-03-23T01:08:40;10.90;1.00
1476;DHT22;730;48.870;12.542;2023-03-23T01:11:13;10.90;1.00
1476;DHT22;730;48.870;12.542;2023-03-23T01:13:41;10.80;1.00
1476;DHT22;730;48.870;12.542;2023-03-23T01:16:08;10.80;1.00
1476;DHT22;730;48.870;12.542;2023-03-23T01:18:38;10.80;1.00
1476;DHT22;730;48.870;12.542;2023-03-23T01:21:10;10.80;1.00
1476;DHT22;730;48.870;12.542;2023-03-23T01:23:37;10.80;1.00
1476;DHT22;730;48.870;12.542;2023-03-23T01:26:07;10.70;1.00
1476;DHT22;730;48.870;12.542;2023-03-23T01:28:34;10.80;1.00
1476;DHT22;730;48.870;12.542;2023-03-23T01:31:08;10.70;1.00
1476;DHT22;730;48.870;12.542;2023-03-23T01:33:35;10.70;1.00
1476;DHT22;730;48.870;12.542;2023-03-23T01:36:06;10.70;1.00
1476;DHT22;730;48.870;12.542;2023-03-23T01:38:35;10.70;1.00
1476;DHT22;730;48.870;12.542;2023-03-23T01:41:02;10.70;1.00
1476;DHT22;730;48.870;12.542;2023-03-23T01:43:28;10.60;1.00
1476;DHT22;730;48.870;12.542;2023-03-23T01:45:54;10.60;1.00
1476;DHT22;730;48.870;12.542;2023-03-23T01:48:24;10.60;1.00
1476;DHT22;730;48.870;12.542;2023-03-23T01:51:09;10.50;1.00
1476;DHT22;730;48.870;12.542;2023-03-23T01:53:56;10.40;1.00
1476;DHT22;730;48.870;12.542;2023-03-23T01:56:26;10.30;1.00
1476;DHT22;730;48.870;12.542;2023-03-23T01:58:53;10.30;1.00
1476;DHT22;730;48.870;12.542;2023-03-23T02:01:21;10.20;1.00
1476;DHT22;730;48.870;12.542;2023-03-23T02:03:48;10.10;1.00
1476;DHT22;730;48.870;12.542;2023-03-23T02:06:16;10.10;1.00
1476;DHT22;730;48.870;12.542;2023-03-23T02:08:43;10.10;1.00
1476;DHT22;730;48.870;12.542;2023-03-23T02:11:14;10.00;1.00
1476;DHT22;730;48.870;12.542;2023-03-23T02:13:42;10.00;1.00
1476;DHT22;730;48.870;12.542;2023-03-23T02:16:25;10.00;1.00
1476;DHT22;730;48.870;12.542;2023-03-23T02:22:01;9.80;1.00
1476;DHT22;730;48.870;12.542;2023-03-23T02:30:43;9.50;1.00
1476;DHT22;730;48.870;12.542;2023-03-23T02:36:08;9.50;1.00
1476;DHT22;730;48.870;12.542;2023-03-23T02:41:07;9.50;1.00
1476;DHT22;730;48.870;12.542;2023-03-23T02:43:40;9.50;1.00
1476;DHT22;730;48.870;12.542;2023-03-23T02:46:08;9.50;1.00
1476;DHT22;730;48.870;12.542;2023-03-23T02:48:36;9.40;1.00
1476;DHT22;730;48.870;12.542;2023-03-23T02:51:05;9.50;1.00
1476;DHT22;730;48.870;12.542;2023-03-23T02:53:34;9.50;1.00
1476;DHT22;730;48.870;12.542;2023-03-23T02:56:03;9.50;1.00
1476;DHT22;730;48.870;12.542;2023-03-23T02:58:31;9.60;1.00
1476;DHT22;730;48.870;12.542;2023-03-23T03:00:58;9.60;1.00
1476;DHT22;730;48.870;12.542;2023-03-23T03:03:28;9.60;1.00
1476;DHT22;730;48.870;12.542;2023-03-23T03:06:22;9.60;1.00
1476;DHT22;730;48.870;12.542;2023-03-23T03:08:55;9.70;1.00
1476;DHT22;730;48.870;12.542;2023-03-23T03:11:24;9.70;1.00
1476;DHT22;730;48.870;12.542;2023-03-23T03:13:54;9.60;1.00
1476;DHT22;730;48.870;12.542;2023-03-23T03:16:30;9.70;1.00
1476;DHT22;730;48.870;12.542;2023-03-23T03:19:26;9.70;1.00
1476;DHT22;730;48.870;12.542;2023-03-23T03:21:53;9.70;1.00
1476;DHT22;730;48.870;12.542;2023-03-23T03:24:22;9.70;1.00
1476;DHT22;730;48.870;12.542;2023-03-23T03:26:52;9.80;1.00
1476;DHT22;730;48.870;12.542;2023-03-23T03:29:22;9.70;1.00
1476;DHT22;730;48.870;12.542;2023-03-23T03:31:52;9.80;1.00
1476;DHT22;730;48.870;12.542;2023-03-23T03:34:21;9.80;1.00
1476;DHT22;730;48.870;12.542;2023-03-23T03:36:53;9.80;1.00
1476;DHT22;730;48.870;12.542;2023-03-23T03:39:20;9.80;1.00
1476;DHT22;730;48.870;12.542;2023-03-23T03:41:47;9.80;1.00
1476;DHT22;730;48.870;12.542;2023-03-23T03:44:13;9.80;1.00
1476;DHT22;730;48.870;12.542;2023-03-23T03:46:41;9.90;1.00
1476;DHT22;730;48.870;12.542;2023-03-23T03:49:10;9.90;1.00
1476;DHT22;730;48.870;12.542;2023-03-23T03:51:38;9.90;1.00
1476;DHT22;730;48.870;12.542;2023-03-23T03:54:05;9.90;1.00
1476;DHT22;730;48.870;12.542;2023-03-23T03:56:31;9.90;1.00
1476;DHT22;730;48.870;12.542;2023-03-23T03:59:02;10.00;1.00
1476;DHT22;730;48.870;12.542;2023-03-23T04:01:29;10.00;1.00
1476;DHT22;730;48.870;12.542;2023-03-23T04:03:55;10.00;1.00
1476;DHT22;730;48.870;12.542;2023-03-23T04:06:22;10.10;1.00
1476;DHT22;730;48.870;12.542;2023-03-23T04:08:48;10.10;1.00
1476;DHT22;730;48.870;12.542;2023-03-23T04:11:15;10.10;1.00
1476;DHT22;730;48.870;12.542;2023-03-23T04:13:41;10.10;1.00
1476;DHT22;730;48.870;12.542;2023-03-23T04:16:08;10.10;1.00
1476;DHT22;730;48.870;12.542;2023-03-23T04:18:35;10.10;1.00
1476;DHT22;730;48.870;12.542;2023-03-23T04:21:02;10.10;1.00
1476;DHT22;730;48.870;12.542;2023-03-23T04:23:30;10.10;1.00
1476;DHT22;730;48.870;12.542;2023-03-23T04:25:59;10.10;1.00
1476;DHT22;730;48.870;12.542;2023-03-23T04:28:25;10.10;1.00
1476;DHT22;730;48.870;12.542;2023-03-23T04:30:54;10.10;1.00
1476;DHT22;730;48.870;12.542;2023-03-23T04:33:24;10.10;1.00
1476;DHT22;730;48.870;12.542;2023-03-23T04:35:53;10.00;1.00
1476;DHT22;730;48.870;12.542;2023-03-23T04:38:20;9.90;1.00
1476;DHT22;730;48.870;12.542;2023-03-23T04:40:48;9.80;1.00
1476;DHT22;730;48.870;12.542;2023-03-23T04:43:21;9.70;1.00
1476;DHT22;730;48.870;12.542;2023-03-23T04:45:55;9.60;1.00
1476;DHT22;730;48.870;12.542;2023-03-23T04:48:26;9.60;1.00
1476;DHT22;730;48.870;12.542;2023-03-23T04:50:53;9.50;1.00
1476;DHT22;730;48.870;12.542;2023-03-23T04:53:20;9.50;1.00
1476;DHT22;730;48.870;12.542;2023-03-23T04:55:46;9.40;1.00
1476;DHT22;730;48.870;12.542;2023-03-23T04:58:13;9.40;1.00
1476;DHT22;730;48.870;12.542;2023-03-23T05:00:41;9.40;1.00
1476;DHT22;730;48.870;12.542;2023-03-23T05:03:10;9.40;1.00
1476;DHT22;730;48.870;12.542;2023-03-23T05:05:36;9.40;1.00
1476;DHT22;730;48.870;12.542;2023-03-23T05:08:03;9.50;1.00
1476;DHT22;730;48.870;12.542;2023-03-23T05:10:29;9.50;1.00
1476;DHT22;730;48.870;12.542;2023-03-23T05:12:55;9.50;1.00
1476;DHT22;730;48.870;12.542;2023-03-23T05:15:21;9.50;1.00
1476;DHT22;730;48.870;12.542;2023-03-23T05:17:47;9.50;1.00
1476;DHT22;730;48.870;12.542;2023-03-23T05:20:15;9.50;1.00
1476;DHT22;730;48.870;12.542;2023-03-23T05:22:46;9.50;1.00
1476;DHT22;730;48.870;12.542;2023-03-23T05:25:17;9.40;1.00
1476;DHT22;730;48.870;12.542;2023-03-23T05:27:46;9.40;1.00
1476;DHT22;730;48.870;12.542;2023-03-23T05:30:15;9.50;1.00
1476;DHT22;730;48.870;12.542;2023-03-23T05:32:43;9.50;1.00
1476;DHT22;730;48.870;12.542;2023-03-23T05:35:12;9.60;1.00
1476;DHT22;730;48.870;12.542;2023-03-23T05:37:38;9.60;1.00
1476;DHT22;730;48.870;12.542;2023-03-23T05:40:05;9.60;1.00
1476;DHT22;730;48.870;12.542;2023-03-23T05:42:33;9.70;1.00
1476;DHT22;730;48.870;12.542;2023-03-23T05:45:01;9.70;1.00
1476;DHT22;730;48.870;12.542;2023-03-23T05:47:27;9.70;1.00
1476;DHT22;730;48.870;12.542;2023-03-23T05:49:54;9.70;1.00
1476;DHT22;730;48.870;12.542;2023-03-23T05:52:20;9.70;1.00
1476;DHT22;730;48.870;12.542;2023-03-23T05:54:48;9.80;1.00
1476;DHT22;730;48.870;12.542;2023-03-23T05:57:14;9.80;1.00
1476;DHT22;730;48.870;12.542;2023-03-23T05:59:40;9.80;1.00
1476;DHT22;730;48.870;12.542;2023-03-23T06:02:06;9.80;1.00
1476;DHT22;730;48.870;12.542;2023-03-23T06:04:33;9.80;1.00
1476;DHT22;730;48.870;12.542;2023-03-23T06:07:01;9.80;1.00
1476;DHT22;730;48.870;12.542;2023-03-23T06:09:28;9.80;1.00
1476;DHT22;730;48.870;12.542;2023-03-23T06:11:54;9.80;1.00
1476;DHT22;730;48.870;12.542;2023-03-23T06:14:20;9.80;1.00
1476;DHT22;730;48.870;12.542;2023-03-23T06:16:47;9.80;1.00
1476;DHT22;730;48.870;12.542;2023-03-23T06:19:14;9.80;1.00
1476;DHT22;730;48.870;12.542;2023-03-23T06:21:42;9.80;1.00
1476;DHT22;730;48.870;12.542;2023-03-23T06:24:08;9.80;1.00
1476;DHT22;730;48.870;12.542;2023-03-23T06:26:37;9.80;1.00
1476;DHT22;730;48.870;12.542;2023-03-23T06:29:05;9.80;1.00
1476;DHT22;730;48.870;12.542;2023-03-23T06:31:48;9.80;1.00
1476;DHT22;730;48.870;12.542;2023-03-23T06:34:15;9.90;1.00
1476;DHT22;730;48.870;12.542;2023-03-23T06:36:41;10.00;1.00
1476;DHT22;730;48.870;12.542;2023-03-23T06:39:09;10.00;1.00
1476;DHT22;730;48.870;12.542;2023-03-23T06:41:35;10.10;1.00
1476;DHT22;730;48.870;12.542;2023-03-23T06:44:02;10.10;1.00
1476;DHT22;730;48.870;12.542;2023-03-23T06:46:28;10.20;1.00
1476;DHT22;730;48.870;12.542;2023-03-23T06:48:54;10.30;1.00
1476;DHT22;730;48.870;12.542;2023-03-23T06:51:21;10.30;1.00
1476;DHT22;730;48.870;12.542;2023-03-23T06:53:47;10.30;1.00
1476;DHT22;730;48.870;12.542;2023-03-23T06:56:13;10.30;1.00
1476;DHT22;730;48.870;12.542;2023-03-23T06:58:40;10.40;1.00
1476;DHT22;730;48.870;12.542;2023-03-23T07:01:08;10.40;1.00
1476;DHT22;730;48.870;12.542;2023-03-23T07:03:35;10.40;1.00
1476;DHT22;730;48.870;12.542;2023-03-23T07:06:02;10.40;1.00
1476;DHT22;730;48.870;12.542;2023-03-23T07:08:29;10.40;1.00
1476;DHT22;730;48.870;12.542;2023-03-23T07:10:55;10.50;1.00
1476;DHT22;730;48.870;12.542;2023-03-23T07:13:22;10.50;1.00
1476;DHT22;730;48.870;12.542;2023-03-23T07:15:48;10.60;1.00
1476;DHT22;730;48.870;12.542;2023-03-23T07:18:15;10.50;1.00
1476;DHT22;730;48.870;12.542;2023-03-23T07:20:41;10.60;1.00
1476;DHT22;730;48.870;12.542;2023-03-23T07:23:07;10.60;1.00
1476;DHT22;730;48.870;12.542;2023-03-23T07:25:34;10.70;1.00
1476;DHT22;730;48.870;12.542;2023-03-23T07:28:03;10.70;1.00
1476;DHT22;730;48.870;12.542;2023-03-23T07:30:29;10.70;1.00
1476;DHT22;730;48.870;12.542;2023-03-23T07:32:56;10.80;1.00
1476;DHT22;730;48.870;12.542;2023-03-23T07:35:23;10.80;1.00
1476;DHT22;730;48.870;12.542;2023-03-23T07:37:50;10.80;1.00
1476;DHT22;730;48.870;12.542;2023-03-23T07:40:18;10.90;1.00
1476;DHT22;730;48.870;12.542;2023-03-23T07:42:50;10.90;1.00
1476;DHT22;730;48.870;12.542;2023-03-23T07:45:17;10.90;1.00
1476;DHT22;730;48.870;12.542;2023-03-23T07:47:43;11.00;1.00
1476;DHT22;730;48.870;12.542;2023-03-23T07:50:09;11.00;1.00
1476;DHT22;730;48.870;12.542;2023-03-23T07:52:40;11.00;1.00
1476;DHT22;730;48.870;12.542;2023-03-23T07:55:10;11.00;1.00
1476;DHT22;730;48.870;12.542;2023-03-23T07:57:45;11.00;1.00
1476;DHT22;730;48.870;12.542;2023-03-23T08:00:11;11.10;1.00
1476;DHT22;730;48.870;12.542;2023-03-23T08:02:53;11.10;1.00
1476;DHT22;730;48.870;12.542;2023-03-23T08:05:21;11.10;1.00
1476;DHT22;730;48.870;12.542;2023-03-23T08:07:48;11.20;1.00
1476;DHT22;730;48.870;12.542;2023-03-23T08:10:16;11.30;1.00
1476;DHT22;730;48.870;12.542;2023-03-23T08:12:45;11.30;1.00
1476;DHT22;730;48.870;12.542;2023-03-23T08:15:13;11.40;1.00
1476;DHT22;730;48.870;12.542;2023-03-23T08:17:43;11.40;1.00
1476;DHT22;730;48.870;12.542;2023-03-23T08:20:11;11.40;1.00
1476;DHT22;730;48.870;12.542;2023-03-23T08:22:44;11.50;1.00
1476;DHT22;730;48.870;12.542;2023-03-23T08:25:13;11.50;1.00
1476;DHT22;730;48.870;12.542;2023-03-23T08:27:40;11.60;1.00
1476;DHT22;730;48.870;12.542;2023-03-23T08:30:12;11.70;1.00
1476;DHT22;730;48.870;12.542;2023-03-23T08:32:38;11.80;1.00
1476;DHT22;730;48.870;12.542;2023-03-23T08:35:06;11.80;1.00
1476;DHT22;730;48.870;12.542;2023-03-23T08:37:32;11.90;1.00
1476;DHT22;730;48.870;12.542;2023-03-23T08:39:58;11.90;1.00
1476;DHT22;730;48.870;12.542;2023-03-23T08:42:25;12.10;1.00
1476;DHT22;730;48.870;12.542;2023-03-23T08:44:52;12.10;1.00
1476;DHT22;730;48.870;12.542;2023-03-23T08:47:18;12.20;1.00
1476;DHT22;730;48.870;12.542;2023-03-23T08:49:44;12.20;1.00
1476;DHT22;730;48.870;12.542;2023-03-23T08:52:11;12.30;1.00
1476;DHT22;730;48.870;12.542;2023-03-23T08:54:37;12.30;1.00
1476;DHT22;730;48.870;12.542;2023-03-23T08:57:04;12.40;1.00
1476;DHT22;730;48.870;12.542;2023-03-23T08:59:31;12.40;1.00
1476;DHT22;730;48.870;12.542;2023-03-23T09:01:57;12.50;1.00
1476;DHT22;730;48.870;12.542;2023-03-23T09:04:24;12.70;1.00
1476;DHT22;730;48.870;12.542;2023-03-23T09:06:50;12.70;1.00
1476;DHT22;730;48.870;12.542;2023-03-23T09:09:16;12.80;1.00
1476;DHT22;730;48.870;12.542;2023-03-23T09:11:42;13.00;1.00
1476;DHT22;730;48.870;12.542;2023-03-23T09:14:08;13.00;1.00
1476;DHT22;730;48.870;12.542;2023-03-23T09:16:34;13.20;1.00
1476;DHT22;730;48.870;12.542;2023-03-23T09:19:00;13.40;1.00
1476;DHT22;730;48.870;12.542;2023-03-23T09:21:27;13.50;1.00
1476;DHT22;730;48.870;12.542;2023-03-23T09:23:55;13.70;1.00
1476;DHT22;730;48.870;12.542;2023-03-23T09:26:27;13.70;1.00
1476;DHT22;730;48.870;12.542;2023-03-23T09:28:53;13.90;1.00
1476;DHT22;730;48.870;12.542;2023-03-23T09:31:19;14.10;1.00
1476;DHT22;730;48.870;12.542;2023-03-23T09:33:46;14.40;1.00
1476;DHT22;730;48.870;12.542;2023-03-23T09:36:13;14.50;1.00
1476;DHT22;730;48.870;12.542;2023-03-23T09:38:40;14.70;1.00
1476;DHT22;730;48.870;12.542;2023-03-23T09:41:24;14.90;1.00
1476;DHT22;730;48.870;12.542;2023-03-23T09:44:05;15.10;1.00
1476;DHT22;730;48.870;12.542;2023-03-23T09:46:46;15.20;1.00
1476;DHT22;730;48.870;12.542;2023-03-23T09:49:34;15.40;1.00
1476;DHT22;730;48.870;12.542;2023-03-23T09:52:21;15.60;1.00
1476;DHT22;730;48.870;12.542;2023-03-23T09:54:52;15.80;1.00
1476;DHT22;730;48.870;12.542;2023-03-23T10:02:33;16.30;1.00
1476;DHT22;730;48.870;12.542;2023-03-23T10:07:43;16.60;1.00
1476;DHT22;730;48.870;12.542;2023-03-23T10:10:12;16.70;1.00
1476;DHT22;730;48.870;12.542;2023-03-23T10:12:52;16.90;1.00
1476;DHT22;730;48.870;12.542;2023-03-23T10:15:28;17.10;1.00
1476;DHT22;730;48.870;12.542;2023-03-23T10:20:52;17.30;1.00
1476;DHT22;730;48.870;12.542;2023-03-23T10:28:41;17.60;1.00
1476;DHT22;730;48.870;12.542;2023-03-23T10:31:13;17.70;1.00
1476;DHT22;730;48.870;12.542;2023-03-23T10:33:43;17.90;1.00
1476;DHT22;730;48.870;12.542;2023-03-23T10:38:53;18.20;1.00
1476;DHT22;730;48.870;12.542;2023-03-23T10:41:21;18.20;1.00
1476;DHT22;730;48.870;12.542;2023-03-23T10:43:49;18.30;1.00
1476;DHT22;730;48.870;12.542;2023-03-23T10:49:00;18.40;1.00
1476;DHT22;730;48.870;12.542;2023-03-23T10:51:37;18.50;1.00
1476;DHT22;730;48.870;12.542;2023-03-23T10:54:04;18.60;1.00
1476;DHT22;730;48.870;12.542;2023-03-23T10:56:41;18.60;1.00
1476;DHT22;730;48.870;12.542;2023-03-23T10:59:19;18.70;1.00
1476;DHT22;730;48.870;12.542;2023-03-23T11:01:51;18.80;1.00
1476;DHT22;730;48.870;12.542;2023-03-23T11:04:18;18.80;1.00
1476;DHT22;730;48.870;12.542;2023-03-23T11:06:48;18.90;1.00
1476;DHT22;730;48.870;12.542;2023-03-23T11:09:19;19.00;1.00
1476;DHT22;730;48.870;12.542;2023-03-23T11:11:54;19.10;1.00
1476;DHT22;730;48.870;12.542;2023-03-23T11:14:31;19.20;1.00
1476;DHT22;730;48.870;12.542;2023-03-23T11:17:01;19.30;1.00
1476;DHT22;730;48.870;12.542;2023-03-23T11:19:30;19.40;1.00
1476;DHT22;730;48.870;12.542;2023-03-23T11:22:27;19.40;1.00
1476;DHT22;730;48.870;12.542;2023-03-23T11:25:01;19.60;1.00
1476;DHT22;730;48.870;12.542;2023-03-23T11:27:29;19.70;1.00
1476;DHT22;730;48.870;12.542;2023-03-23T11:30:08;19.80;1.00
1476;DHT22;730;48.870;12.542;2023-03-23T11:32:35;19.90;1.00
1476;DHT22;730;48.870;12.542;2023-03-23T11:35:11;20.10;1.00
1476;DHT22;730;48.870;12.542;2023-03-23T11:37:47;20.30;1.00
1476;DHT22;730;48.870;12.542;2023-03-23T11:40:21;20.40;1.00
1476;DHT22;730;48.870;12.542;2023-03-23T11:42:59;20.50;1.00
1476;DHT22;730;48.870;12.542;2023-03-23T11:45:35;20.60;1.00
1476;DHT22;730;48.870;12.542;2023-03-23T11:48:27;20.70;1.00
1476;DHT22;730;48.870;12.542;2023-03-23T11:51:01;20.90;1.00
1476;DHT22;730;48.870;12.542;2023-03-23T11:53:48;21.00;1.00
1476;DHT22;730;48.870;12.542;2023-03-23T11:58:56;21.30;1.00
1476;DHT22;730;48.870;12.542;2023-03-23T12:01:32;21.30;1.00
1476;DHT22;730;48.870;12.542;2023-03-23T12:04:27;21.30;1.00
1476;DHT22;730;48.870;12.542;2023-03-23T12:10:52;21.20;1.00
1476;DHT22;730;48.870;12.542;2023-03-23T12:19:09;21.10;1.00
1476;DHT22;730;48.870;12.542;2023-03-23T12:30:35;21.00;1.00
1476;DHT22;730;48.870;12.542;2023-03-23T12:33:32;21.10;1.00
1476;DHT22;730;48.870;12.542;2023-03-23T12:36:09;21.10;1.00
1476;DHT22;730;48.870;12.542;2023-03-23T12:44:07;21.40;1.00
1476;DHT22;730;48.870;12.542;2023-03-23T12:46:43;21.40;1.00
1476;DHT22;730;48.870;12.542;2023-03-23T12:49:26;21.50;1.00
1476;DHT22;730;48.870;12.542;2023-03-23T12:51:59;21.50;1.00
1476;DHT22;730;48.870;12.542;2023-03-23T12:54:31;21.50;1.00
1476;DHT22;730;48.870;12.542;2023-03-23T12:57:44;21.40;1.00
1476;DHT22;730;48.870;12.542;2023-03-23T13:00:28;21.20;1.00
1476;DHT22;730;48.870;12.542;2023-03-23T13:03:14;21.10;1.00
1476;DHT22;730;48.870;12.542;2023-03-23T13:05:52;21.00;1.00
1476;DHT22;730;48.870;12.542;2023-03-23T13:08:36;21.00;1.00
1476;DHT22;730;48.870;12.542;2023-03-23T13:11:08;20.90;1.00
1476;DHT22;730;48.870;12.542;2023-03-23T13:13:51;20.90;1.00
1476;DHT22;730;48.870;12.542;2023-03-23T13:22:04;20.80;1.00
1476;DHT22;730;48.870;12.542;2023-03-23T13:24:35;20.70;1.00
1476;DHT22;730;48.870;12.542;2023-03-23T13:27:02;20.80;1.00
1476;DHT22;730;48.870;12.542;2023-03-23T13:29:28;20.90;1.00
1476;DHT22;730;48.870;12.542;2023-03-23T13:32:16;20.90;1.00
1476;DHT22;730;48.870;12.542;2023-03-23T13:34:43;20.90;1.00
1476;DHT22;730;48.870;12.542;2023-03-23T13:37:22;21.00;1.00
1476;DHT22;730;48.870;12.542;2023-03-23T13:39:50;20.90;1.00
1476;DHT22;730;48.870;12.542;2023-03-23T13:50:03;20.80;1.00
1476;DHT22;730;48.870;12.542;2023-03-23T13:52:52;20.70;1.00
1476;DHT22;730;48.870;12.542;2023-03-23T14:03:25;20.60;1.00
1476;DHT22;730;48.870;12.542;2023-03-23T14:11:00;20.30;1.00
1476;DHT22;730;48.870;12.542;2023-03-23T14:13:32;20.30;1.00
1476;DHT22;730;48.870;12.542;2023-03-23T14:16:03;20.10;1.00
1476;DHT22;730;48.870;12.542;2023-03-23T14:18:37;20.00;1.00
1476;DHT22;730;48.870;12.542;2023-03-23T14:21:04;20.00;1.00
1476;DHT22;730;48.870;12.542;2023-03-23T14:23:32;19.90;1.00
1476;DHT22;730;48.870;12.542;2023-03-23T14:26:10;19.80;1.00
1476;DHT22;730;48.870;12.542;2023-03-23T14:28:39;19.70;1.00
1476;DHT22;730;48.870;12.542;2023-03-23T14:31:16;19.60;1.00
1476;DHT22;730;48.870;12.542;2023-03-23T14:33:43;19.60;1.00
1476;DHT22;730;48.870;12.542;2023-03-23T14:36:09;19.50;1.00
1476;DHT22;730;48.870;12.542;2023-03-23T14:38:36;19.60;1.00
1476;DHT22;730;48.870;12.542;2023-03-23T14:41:04;19.50;1.00
1476;DHT22;730;48.870;12.542;2023-03-23T14:43:31;19.50;1.00
1476;DHT22;730;48.870;12.542;2023-03-23T14:46:02;19.50;1.00
1476;DHT22;730;48.870;12.542;2023-03-23T14:48:30;19.50;1.00
1476;DHT22;730;48.870;12.542;2023-03-23T14:51:00;19.40;1.00
1476;DHT22;730;48.870;12.542;2023-03-23T14:53:38;19.50;1.00
1476;DHT22;730;48.870;12.542;2023-03-23T14:56:14;19.50;1.00
1476;DHT22;730;48.870;12.542;2023-03-23T14:58:45;19.50;1.00
1476;DHT22;730;48.870;12.542;2023-03-23T15:01:15;19.50;1.00
1476;DHT22;730;48.870;12.542;2023-03-23T15:03:50;19.60;1.00
1476;DHT22;730;48.870;12.542;2023-03-23T15:06:19;19.70;1.00
1476;DHT22;730;48.870;12.542;2023-03-23T15:08:49;19.80;1.00
1476;DHT22;730;48.870;12.542;2023-03-23T15:13:45;19.80;1.00
1476;DHT22;730;48.870;12.542;2023-03-23T15:16:19;19.80;1.00
1476;DHT22;730;48.870;12.542;2023-03-23T15:19:03;19.80;1.00
1476;DHT22;730;48.870;12.542;2023-03-23T15:21:32;19.80;1.00
1476;DHT22;730;48.870;12.542;2023-03-23T15:24:01;19.90;1.00
1476;DHT22;730;48.870;12.542;2023-03-23T15:26:42;19.90;1.00
1476;DHT22;730;48.870;12.542;2023-03-23T15:31:39;19.90;1.00
1476;DHT22;730;48.870;12.542;2023-03-23T15:34:11;19.90;1.00
1476;DHT22;730;48.870;12.542;2023-03-23T15:36:39;19.90;1.00
1476;DHT22;730;48.870;12.542;2023-03-23T15:39:06;19.90;1.00
1476;DHT22;730;48.870;12.542;2023-03-23T15:41:32;19.80;1.00
1476;DHT22;730;48.870;12.542;2023-03-23T15:44:18;19.80;1.00
1476;DHT22;730;48.870;12.542;2023-03-23T15:46:51;19.80;1.00
1476;DHT22;730;48.870;12.542;2023-03-23T15:49:17;19.80;1.00
1476;DHT22;730;48.870;12.542;2023-03-23T15:51:44;19.80;1.00
1476;DHT22;730;48.870;12.542;2023-03-23T15:54:15;19.80;1.00
1476;DHT22;730;48.870;12.542;2023-03-23T15:56:41;19.80;1.00
1476;DHT22;730;48.870;12.542;2023-03-23T15:59:08;19.80;1.00
1476;DHT22;730;48.870;12.542;2023-03-23T16:01:38;19.80;1.00
1476;DHT22;730;48.870;12.542;2023-03-23T16:04:10;19.70;1.00
1476;DHT22;730;48.870;12.542;2023-03-23T16:06:37;19.70;1.00
1476;DHT22;730;48.870;12.542;2023-03-23T16:09:05;19.70;1.00
1476;DHT22;730;48.870;12.542;2023-03-23T16:11:32;19.70;1.00
1476;DHT22;730;48.870;12.542;2023-03-23T16:13:59;19.70;1.00
1476;DHT22;730;48.870;12.542;2023-03-23T16:16:36;19.70;1.00
1476;DHT22;730;48.870;12.542;2023-03-23T16:19:02;19.70;1.00
1476;DHT22;730;48.870;12.542;2023-03-23T16:21:29;19.70;1.00
1476;DHT22;730;48.870;12.542;2023-03-23T16:23:55;19.70;1.00
1476;DHT22;730;48.870;12.542;2023-03-23T16:26:22;19.70;1.00
1476;DHT22;730;48.870;12.542;2023-03-23T16:28:48;19.70;1.00
1476;DHT22;730;48.870;12.542;2023-03-23T16:31:14;19.60;1.00
1476;DHT22;730;48.870;12.542;2023-03-23T16:33:40;19.60;1.00
1476;DHT22;730;48.870;12.542;2023-03-23T16:36:09;19.70;1.00
1476;DHT22;730;48.870;12.542;2023-03-23T16:38:36;19.70;1.00
1476;DHT22;730;48.870;12.542;2023-03-23T16:41:02;19.60;1.00
1476;DHT22;730;48.870;12.542;2023-03-23T16:43:28;19.60;1.00
1476;DHT22;730;48.870;12.542;2023-03-23T16:46:04;19.50;1.00
1476;DHT22;730;48.870;12.542;2023-03-23T16:48:32;19.10;1.00
1476;DHT22;730;48.870;12.542;2023-03-23T16:50:58;19.00;1.00
1476;DHT22;730;48.870;12.542;2023-03-23T16:53:24;19.00;1.00
1476;DHT22;730;48.870;12.542;2023-03-23T16:55:51;18.90;1.00
1476;DHT22;730;48.870;12.542;2023-03-23T16:58:17;18.80;1.00
1476;DHT22;730;48.870;12.542;2023-03-23T17:00:46;18.70;1.00
1476;DHT22;730;48.870;12.542;2023-03-23T17:03:13;18.70;1.00
1476;DHT22;730;48.870;12.542;2023-03-23T17:05:40;18.80;1.00
1476;DHT22;730;48.870;12.542;2023-03-23T17:08:07;18.70;1.00
1476;DHT22;730;48.870;12.542;2023-03-23T17:10:36;18.80;1.00
1476;DHT22;730;48.870;12.542;2023-03-23T17:13:02;18.80;1.00
1476;DHT22;730;48.870;12.542;2023-03-23T17:15:28;18.80;1.00
1476;DHT22;730;48.870;12.542;2023-03-23T17:17:54;18.80;1.00
1476;DHT22;730;48.870;12.542;2023-03-23T17:20:20;18.80;1.00
1476;DHT22;730;48.870;12.542;2023-03-23T17:22:46;18.70;1.00
1476;DHT22;730;48.870;12.542;2023-03-23T17:25:13;18.70;1.00
1476;DHT22;730;48.870;12.542;2023-03-23T17:27:39;18.70;1.00
1476;DHT22;730;48.870;12.542;2023-03-23T17:30:07;18.60;1.00
1476;DHT22;730;48.870;12.542;2023-03-23T17:32:34;18.60;1.00
1476;DHT22;730;48.870;12.542;2023-03-23T17:35:02;18.60;1.00
1476;DHT22;730;48.870;12.542;2023-03-23T17:37:30;18.50;1.00
1476;DHT22;730;48.870;12.542;2023-03-23T17:39:56;18.50;1.00
1476;DHT22;730;48.870;12.542;2023-03-23T17:42:22;18.50;1.00
1476;DHT22;730;48.870;12.542;2023-03-23T17:44:49;18.40;1.00
1476;DHT22;730;48.870;12.542;2023-03-23T17:47:15;18.30;1.00
1476;DHT22;730;48.870;12.542;2023-03-23T17:49:41;18.30;1.00
1476;DHT22;730;48.870;12.542;2023-03-23T17:52:07;18.30;1.00
1476;DHT22;730;48.870;12.542;2023-03-23T17:54:33;18.30;1.00
1476;DHT22;730;48.870;12.542;2023-03-23T17:56:59;18.30;1.00
1476;DHT22;730;48.870;12.542;2023-03-23T17:59:29;18.30;1.00
1476;DHT22;730;48.870;12.542;2023-03-23T18:01:55;18.30;1.00
1476;DHT22;730;48.870;12.542;2023-03-23T18:04:22;18.30;1.00
1476;DHT22;730;48.870;12.542;2023-03-23T18:06:48;18.20;1.00
1476;DHT22;730;48.870;12.542;2023-03-23T18:09:14;18.20;1.00
1476;DHT22;730;48.870;12.542;2023-03-23T18:11:41;18.10;1.00
1476;DHT22;730;48.870;12.542;2023-03-23T18:14:07;18.00;1.00